Time;durP1;ratioP1;P1;durP2;ratioP2;P2;SDS_P1;SDS_P2;PMS_P1;PMS_P2;Temp;Humidity;BMP_temperature;BMP_pressure;BME280_temperature;BME280_humidity;BME280_pressure;Samples;Min_cycle;Max_cycle;Signal;HPM_P1;HPM_P2
2022/06/27 00:00:59;;;;;;;2.22;0.70;;;20.70;99.90;;;;;;5034617;28;20571;-69
2022/06/27 00:03:25;;;;;;;1.13;1.08;;;20.60;99.90;;;;;;5051747;28;20185;-71
2022/06/27 00:05:50;;;;;;;1.85;0.82;;;20.60;99.90;;;;;;5051779;28;20538;-72
2022/06/27 00:08:16;;;;;;;0.85;0.85;;;20.60;99.90;;;;;;5052202;28;20193;-71
2022/06/27 00:10:42;;;;;;;0.70;0.70;;;20.60;99.90;;;;;;5051712;28;20209;-70
2022/06/27 00:13:08;;;;;;;1.10;0.95;;;20.60;99.90;;;;;;5034033;28;20204;-70
2022/06/27 00:15:34;;;;;;;1.05;0.85;;;20.50;99.90;;;;;;5051724;28;20192;-70
2022/06/27 00:17:59;;;;;;;0.80;0.77;;;20.50;99.90;;;;;;5068431;28;20225;-70
2022/06/27 00:20:25;;;;;;;1.05;0.93;;;20.40;99.90;;;;;;5070686;28;20201;-70
2022/06/27 00:22:52;;;;;;;0.82;0.70;;;20.40;99.90;;;;;;5051733;28;20182;-70
2022/06/27 00:25:18;;;;;;;2.05;1.33;;;20.40;99.90;;;;;;5051755;28;20273;-71
2022/06/27 00:27:44;;;;;;;1.48;0.90;;;20.40;99.90;;;;;;5052171;28;20277;-71
2022/06/27 00:30:11;;;;;;;0.85;0.85;;;20.30;99.90;;;;;;5051805;28;20296;-71
2022/06/27 00:32:37;;;;;;;1.13;0.95;;;20.30;99.90;;;;;;5050255;28;20653;-72
2022/06/27 00:35:05;;;;;;;1.10;0.63;;;20.40;99.90;;;;;;5050258;28;20247;-72
2022/06/27 00:37:30;;;;;;;1.10;0.73;;;20.40;99.90;;;;;;5051495;28;20475;-72
2022/06/27 00:39:56;;;;;;;1.35;0.95;;;20.40;99.90;;;;;;5051562;28;20624;-72
2022/06/27 00:42:22;;;;;;;1.83;1.20;;;20.40;99.90;;;;;;5070278;28;20230;-73
2022/06/27 00:44:48;;;;;;;1.20;1.10;;;20.40;99.90;;;;;;5071530;28;20588;-72
2022/06/27 00:47:14;;;;;;;1.05;0.95;;;20.40;99.90;;;;;;5070209;28;20881;-71
2022/06/27 00:49:41;;;;;;;0.88;0.88;;;20.40;99.90;;;;;;5071246;28;20209;-71
2022/06/27 00:52:09;;;;;;;1.50;1.27;;;20.30;99.90;;;;;;5070295;28;20322;-72
2022/06/27 00:54:37;;;;;;;0.65;0.65;;;20.30;99.90;;;;;;5071103;28;20200;-68
2022/06/27 00:57:04;;;;;;;1.83;1.10;;;20.30;99.90;;;;;;5070303;28;20730;-74
2022/06/27 00:59:30;;;;;;;2.00;1.55;;;20.30;99.90;;;;;;5071086;28;20203;-72
2022/06/27 01:01:56;;;;;;;0.65;0.65;;;20.30;99.90;;;;;;5072766;28;20189;-76
2022/06/27 01:04:22;;;;;;;2.25;1.50;;;20.30;99.90;;;;;;5071152;28;20589;-76
2022/06/27 01:06:52;;;;;;;2.00;1.00;;;20.20;99.90;;;;;;5073358;28;20197;-77
2022/06/27 01:09:21;;;;;;;0.80;0.80;;;20.10;99.90;;;;;;5074096;28;20334;-77
2022/06/27 01:11:47;;;;;;;0.77;0.70;;;20.10;99.90;;;;;;5073365;28;20277;-75
2022/06/27 01:14:14;;;;;;;3.17;1.40;;;20.10;99.90;;;;;;5072344;28;20589;-75
2022/06/27 01:16:40;;;;;;;1.85;1.45;;;20.20;99.90;;;;;;5067636;28;20216;-75
2022/06/27 01:19:09;;;;;;;1.65;1.17;;;20.10;99.90;;;;;;5056183;28;20197;-74
2022/06/27 01:21:45;;;;;;;1.08;0.90;;;20.20;99.90;;;;;;5055911;28;20200;-74
2022/06/27 01:24:10;;;;;;;5.30;1.55;;;20.20;99.90;;;;;;5055799;28;20193;-74
2022/06/27 01:26:36;;;;;;;2.28;0.98;;;20.10;99.90;;;;;;5055594;28;20200;-74
2022/06/27 01:29:03;;;;;;;1.13;1.02;;;20.10;99.90;;;;;;5055873;28;20267;-75
2022/06/27 01:31:30;;;;;;;1.05;1.05;;;20.10;99.90;;;;;;5055451;28;20660;-75
2022/06/27 01:33:57;;;;;;;1.85;1.20;;;20.00;99.90;;;;;;5037957;28;20221;-74
2022/06/27 01:39:07;;;;;;;1.13;1.02;;;20.00;99.90;;;;;;5055676;28;20228;-75
2022/06/27 01:41:33;;;;;;;0.95;0.60;;;20.00;99.90;;;;;;5055087;28;20210;-74
2022/06/27 01:43:59;;;;;;;1.30;1.00;;;20.00;99.90;;;;;;5055205;28;20221;-74
2022/06/27 01:46:24;;;;;;;0.77;0.75;;;20.00;99.90;;;;;;5055263;28;20197;-74
2022/06/27 01:48:50;;;;;;;0.80;0.75;;;20.10;99.90;;;;;;5055502;28;20198;-75
2022/06/27 01:51:17;;;;;;;2.08;1.30;;;20.20;99.90;;;;;;5037843;28;20533;-74
2022/06/27 01:53:43;;;;;;;1.45;1.15;;;20.10;99.90;;;;;;5037053;28;20242;-74
2022/06/27 01:56:09;;;;;;;2.25;1.30;;;20.00;99.90;;;;;;5054930;28;20186;-74
2022/06/27 01:58:38;;;;;;;1.25;1.15;;;20.00;99.90;;;;;;5055939;28;20198;-74
2022/06/27 02:01:05;;;;;;;1.92;0.98;;;20.10;99.90;;;;;;5032274;28;20228;-75
2022/06/27 02:03:37;;;;;;;0.85;0.63;;;20.10;99.90;;;;;;5058299;28;20198;-73
2022/06/27 02:06:06;;;;;;;1.20;0.82;;;20.10;99.90;;;;;;5037024;28;20202;-74
2022/06/27 02:08:32;;;;;;;1.55;0.95;;;20.10;99.90;;;;;;5021193;28;20675;-74
2022/06/27 02:10:58;;;;;;;1.63;0.88;;;20.20;99.90;;;;;;5037347;28;20264;-74
2022/06/27 02:13:24;;;;;;;1.48;1.38;;;20.20;99.90;;;;;;5024147;28;20221;-75
2022/06/27 02:16:33;;;;;;;1.20;1.08;;;20.30;99.90;;;;;;5058533;28;20201;-73
2022/06/27 02:19:00;;;;;;;0.77;0.77;;;20.30;99.90;;;;;;5033721;28;20585;-75
2022/06/27 02:21:29;;;;;;;0.68;0.68;;;20.30;99.90;;;;;;5056118;28;20190;-75
2022/06/27 02:23:55;;;;;;;1.42;1.08;;;20.40;99.90;;;;;;5056336;28;20196;-75
2022/06/27 02:26:24;;;;;;;0.95;0.90;;;20.50;99.90;;;;;;5038410;28;20201;-75
2022/06/27 02:28:52;;;;;;;1.38;1.00;;;20.50;99.90;;;;;;5055565;28;20808;-75
2022/06/27 02:31:18;;;;;;;1.85;1.00;;;20.50;99.90;;;;;;5055556;28;20182;-75
2022/06/27 02:33:45;;;;;;;0.52;0.52;;;20.60;99.90;;;;;;5027461;28;20251;-74
2022/06/27 02:36:19;;;;;;;0.65;0.65;;;20.60;99.90;;;;;;5035141;28;20568;-74
2022/06/27 02:38:50;;;;;;;0.90;0.85;;;20.70;99.90;;;;;;5016752;28;20194;-74
2022/06/27 02:41:19;;;;;;;1.00;1.00;;;20.70;99.90;;;;;;5034862;28;20218;-74
2022/06/27 02:43:48;;;;;;;1.85;1.10;;;20.80;99.90;;;;;;5035314;28;20277;-73
2022/06/27 02:46:14;;;;;;;2.00;1.08;;;20.70;99.90;;;;;;5016619;28;20198;-74
2022/06/27 02:48:40;;;;;;;4.13;0.75;;;20.80;99.90;;;;;;5034453;28;20615;-73
2022/06/27 02:51:10;;;;;;;3.90;1.52;;;20.80;99.90;;;;;;5034503;28;20194;-74
2022/06/27 02:53:44;;;;;;;1.48;0.85;;;20.80;99.90;;;;;;5034212;28;20285;-73
2022/06/27 02:56:14;;;;;;;1.00;0.95;;;20.70;99.90;;;;;;5034174;28;20201;-73
2022/06/27 02:58:48;;;;;;;1.15;1.05;;;20.70;99.90;;;;;;5034006;28;20567;-73
2022/06/27 03:01:18;;;;;;;1.02;0.93;;;20.70;99.90;;;;;;5042101;28;20276;-73
2022/06/27 03:03:47;;;;;;;1.27;1.02;;;20.70;99.90;;;;;;5037854;28;20268;-72
2022/06/27 03:06:13;;;;;;;1.02;0.60;;;20.70;99.90;;;;;;5042315;28;20259;-73
2022/06/27 03:08:45;;;;;;;1.00;0.77;;;20.70;99.90;;;;;;5035616;28;20220;-73
2022/06/27 03:11:16;;;;;;;0.65;0.65;;;20.70;99.90;;;;;;5036339;28;20264;-73
2022/06/27 03:13:43;;;;;;;2.17;1.63;;;20.70;99.90;;;;;;5033553;28;20190;-74
2022/06/27 03:16:10;;;;;;;1.65;1.30;;;20.80;99.90;;;;;;5015713;28;20676;-73
2022/06/27 03:18:35;;;;;;;1.60;1.30;;;20.80;99.90;;;;;;5033280;28;20186;-73
2022/06/27 03:21:01;;;;;;;1.50;1.05;;;20.90;99.90;;;;;;5033993;28;20652;-74
2022/06/27 03:23:27;;;;;;;1.02;0.68;;;20.90;99.90;;;;;;5033239;28;20657;-73
2022/06/27 03:25:54;;;;;;;2.22;1.75;;;20.80;99.90;;;;;;5015389;28;20244;-73
2022/06/27 03:28:20;;;;;;;2.30;1.17;;;20.90;99.90;;;;;;5033718;28;20198;-73
2022/06/27 03:30:46;;;;;;;0.93;0.68;;;21.00;99.90;;;;;;5015639;28;20214;-73
2022/06/27 03:33:12;;;;;;;1.80;1.20;;;21.10;99.90;;;;;;5033682;28;20711;-73
2022/06/27 03:35:37;;;;;;;1.70;1.20;;;21.20;99.90;;;;;;5033341;28;20186;-73
2022/06/27 03:38:03;;;;;;;1.25;1.08;;;21.20;99.90;;;;;;5032206;28;20190;-73
2022/06/27 03:40:29;;;;;;;1.42;1.33;;;21.40;99.90;;;;;;5033060;28;20680;-72
2022/06/27 03:42:55;;;;;;;0.68;0.68;;;21.40;99.90;;;;;;5033111;28;20194;-73
2022/06/27 03:45:21;;;;;;;0.88;0.88;;;21.50;99.90;;;;;;5033063;28;20202;-73
2022/06/27 03:47:52;;;;;;;1.27;0.90;;;21.60;99.90;;;;;;5033382;28;20629;-73
2022/06/27 03:50:19;;;;;;;1.55;1.02;;;21.70;99.90;;;;;;5033170;28;20209;-73
2022/06/27 03:52:45;;;;;;;1.13;1.02;;;21.80;99.90;;;;;;5033511;28;20652;-73
2022/06/27 03:55:11;;;;;;;0.80;0.80;;;22.00;99.90;;;;;;5032948;28;20190;-74
2022/06/27 03:57:45;;;;;;;0.85;0.85;;;22.00;99.90;;;;;;5033514;28;20201;-75
2022/06/27 04:00:11;;;;;;;0.82;0.82;;;22.10;99.90;;;;;;5033420;28;20198;-75
2022/06/27 04:02:37;;;;;;;1.77;1.10;;;22.20;99.90;;;;;;5015239;28;20197;-72
2022/06/27 04:05:03;;;;;;;1.85;1.55;;;22.20;99.90;;;;;;5032445;28;20189;-73
2022/06/27 04:07:29;;;;;;;1.75;0.90;;;22.20;99.90;;;;;;5050035;28;20209;-73
2022/06/27 04:09:56;;;;;;;1.52;1.30;;;22.30;99.90;;;;;;5052560;28;20254;-73
2022/06/27 04:12:21;;;;;;;1.15;1.10;;;22.20;99.90;;;;;;5034081;28;20652;-73
2022/06/27 04:14:47;;;;;;;1.30;1.20;;;22.20;99.90;;;;;;5052459;28;20190;-73
2022/06/27 04:17:13;;;;;;;2.67;1.20;;;22.40;99.90;;;;;;5052100;28;20229;-73
2022/06/27 04:19:40;;;;;;;2.25;1.48;;;22.60;99.90;;;;;;5034308;28;20201;-73
2022/06/27 04:22:05;;;;;;;1.13;1.00;;;22.70;99.90;;;;;;5052056;28;20750;-73
2022/06/27 04:24:31;;;;;;;1.88;1.52;;;22.90;99.90;;;;;;5051875;28;20247;-73
2022/06/27 04:26:57;;;;;;;1.83;1.42;;;23.00;99.90;;;;;;5051810;28;20576;-73
2022/06/27 04:29:23;;;;;;;3.40;1.67;;;23.00;99.90;;;;;;5033524;28;20210;-73
2022/06/27 04:31:55;;;;;;;1.52;1.05;;;22.70;99.90;;;;;;5034089;28;20197;-74
2022/06/27 04:34:21;;;;;;;1.10;1.00;;;22.50;99.90;;;;;;5051728;28;20208;-74
2022/06/27 04:36:46;;;;;;;1.52;1.30;;;22.50;99.90;;;;;;5053042;28;20185;-73
2022/06/27 04:39:19;;;;;;;2.25;1.80;;;22.60;99.90;;;;;;5053435;28;20189;-75
2022/06/27 04:41:51;;;;;;;2.50;1.27;;;22.80;99.90;;;;;;5033968;28;20568;-74
2022/06/27 04:44:18;;;;;;;1.45;1.30;;;23.20;99.90;;;;;;5034185;28;20213;-73
2022/06/27 04:46:47;;;;;;;1.45;1.35;;;23.40;99.90;;;;;;5034915;28;20216;-73
2022/06/27 04:49:17;;;;;;;3.20;1.40;;;23.60;99.90;;;;;;5051141;28;20512;-74
2022/06/27 04:51:49;;;;;;;2.55;1.33;;;23.70;99.90;;;;;;5034003;28;20312;-74
2022/06/27 04:54:16;;;;;;;5.85;1.70;;;23.60;99.90;;;;;;5033896;28;20224;-74
2022/06/27 04:56:43;;;;;;;2.00;1.33;;;23.40;99.90;;;;;;5052183;28;20189;-74
2022/06/27 04:59:10;;;;;;;2.30;1.60;;;23.20;99.90;;;;;;5035896;28;20198;-74
2022/06/27 05:01:36;;;;;;;1.35;1.08;;;23.10;99.90;;;;;;5050148;28;20200;-74
2022/06/27 05:04:02;;;;;;;1.40;1.30;;;23.20;99.90;;;;;;5039001;28;20568;-74
2022/06/27 05:06:28;;;;;;;1.38;1.10;;;23.20;99.90;;;;;;5051453;28;20279;-73
2022/06/27 05:08:54;;;;;;;1.40;1.20;;;23.00;99.90;;;;;;5058657;28;20201;-74
2022/06/27 05:11:20;;;;;;;1.75;1.42;;;22.80;99.90;;;;;;5034629;28;20205;-73
2022/06/27 05:13:45;;;;;;;1.20;1.10;;;22.90;99.90;;;;;;5033801;28;20189;-74
2022/06/27 05:16:12;;;;;;;1.60;1.27;;;23.10;99.90;;;;;;5051771;28;20189;-75
2022/06/27 05:18:37;;;;;;;1.25;1.08;;;23.20;99.90;;;;;;5051560;28;20577;-74
2022/06/27 05:21:03;;;;;;;2.15;1.90;;;23.40;99.90;;;;;;5033180;28;20209;-75
2022/06/27 05:23:29;;;;;;;2.50;1.92;;;23.40;99.90;;;;;;5051410;28;20205;-74
2022/06/27 05:25:55;;;;;;;1.30;1.20;;;23.00;99.90;;;;;;5051680;28;20228;-74
2022/06/27 05:28:21;;;;;;;1.38;1.10;;;22.80;99.90;;;;;;5051703;28;20202;-74
2022/06/27 05:30:47;;;;;;;2.60;1.48;;;22.80;99.90;;;;;;5051651;28;20292;-73
2022/06/27 05:33:13;;;;;;;3.63;2.22;;;22.80;99.90;;;;;;5051570;28;20186;-74
2022/06/27 05:35:39;;;;;;;1.63;1.38;;;22.80;99.90;;;;;;5051546;28;20302;-74
2022/06/27 05:38:05;;;;;;;5.30;1.58;;;22.90;99.90;;;;;;5033388;28;20221;-74
2022/06/27 05:40:31;;;;;;;1.20;1.00;;;23.10;99.90;;;;;;5050979;28;20673;-74
2022/06/27 05:42:57;;;;;;;1.73;1.63;;;23.20;99.90;;;;;;5051278;28;20277;-75
2022/06/27 05:45:23;;;;;;;6.00;1.90;;;23.00;99.90;;;;;;5051343;28;20316;-74
2022/06/27 05:47:57;;;;;;;2.03;1.45;;;22.90;99.90;;;;;;5033198;28;20668;-74
2022/06/27 05:50:23;;;;;;;1.40;1.27;;;22.90;99.90;;;;;;5032992;28;20520;-74
2022/06/27 05:52:51;;;;;;;2.65;1.77;;;23.00;99.90;;;;;;5050988;28;20197;-74
2022/06/27 05:55:17;;;;;;;2.33;1.73;;;23.00;99.90;;;;;;5033295;28;20193;-74
2022/06/27 05:57:44;;;;;;;3.33;1.98;;;23.00;99.90;;;;;;5032570;28;20198;-75
2022/06/27 06:00:11;;;;;;;2.72;1.75;;;23.30;99.90;;;;;;5031014;28;20190;-75
2022/06/27 06:02:37;;;;;;;1.02;0.93;;;23.50;99.90;;;;;;5035943;28;20194;-75
2022/06/27 06:05:21;;;;;;;3.10;0.98;;;23.70;99.90;;;;;;5017830;28;20293;-75
2022/06/27 06:07:48;;;;;;;1.92;1.75;;;23.90;99.90;;;;;;5035123;28;20224;-74
2022/06/27 06:10:14;;;;;;;1.48;1.25;;;23.90;99.90;;;;;;5034738;28;20224;-74
2022/06/27 06:12:43;;;;;;;1.67;1.48;;;24.00;99.90;;;;;;5034729;28;20225;-75
2022/06/27 06:15:09;;;;;;;1.63;1.38;;;24.00;99.90;;;;;;5034973;28;20665;-75
2022/06/27 06:17:36;;;;;;;1.15;0.98;;;24.10;99.90;;;;;;5034599;28;20317;-75
2022/06/27 06:20:05;;;;;;;1.77;1.17;;;24.30;99.90;;;;;;5054625;28;20268;-74
2022/06/27 06:22:31;;;;;;;2.38;1.30;;;24.50;99.90;;;;;;5054780;28;20725;-75
2022/06/27 06:24:58;;;;;;;1.60;1.35;;;24.70;99.90;;;;;;5055057;28;20703;-75
2022/06/27 06:27:24;;;;;;;2.03;1.83;;;24.80;99.90;;;;;;5054364;28;20664;-73
2022/06/27 06:29:50;;;;;;;2.65;1.70;;;25.10;99.90;;;;;;5054274;28;20224;-73
2022/06/27 06:32:16;;;;;;;3.22;1.73;;;25.00;99.90;;;;;;5054326;28;20237;-73
2022/06/27 06:34:42;;;;;;;2.42;1.80;;;24.80;99.90;;;;;;5054190;28;20585;-73
2022/06/27 06:37:09;;;;;;;2.90;2.13;;;24.70;99.90;;;;;;5048141;28;20608;-74
2022/06/27 06:39:36;;;;;;;2.47;1.75;;;24.60;99.90;;;;;;5033994;28;20571;-74
2022/06/27 06:42:03;;;;;;;2.45;1.48;;;24.80;99.90;;;;;;5033959;28;20601;-74
2022/06/27 06:44:29;;;;;;;1.60;1.25;;;25.10;99.90;;;;;;5034293;28;20198;-73
2022/06/27 06:46:55;;;;;;;1.63;1.52;;;25.20;99.90;;;;;;5034512;28;20547;-73
2022/06/27 06:49:21;;;;;;;2.42;1.75;;;25.00;99.90;;;;;;5034030;28;20202;-73
2022/06/27 06:51:48;;;;;;;1.50;1.20;;;24.90;99.90;;;;;;5034452;28;20197;-74
2022/06/27 06:54:17;;;;;;;1.90;1.50;;;25.00;99.90;;;;;;5033876;28;20190;-74
2022/06/27 06:56:46;;;;;;;2.08;1.60;;;25.30;99.90;;;;;;5034111;28;20252;-74
2022/06/27 06:59:12;;;;;;;3.10;1.90;;;25.70;99.90;;;;;;5016279;28;20283;-74
2022/06/27 07:01:39;;;;;;;1.63;1.42;;;25.90;99.90;;;;;;5033261;28;20202;-74
2022/06/27 07:04:05;;;;;;;6.85;1.30;;;26.10;99.90;;;;;;5033823;28;20680;-74
2022/06/27 07:06:32;;;;;;;2.35;1.75;;;26.20;99.90;;;;;;5044457;28;20604;-74
2022/06/27 07:08:59;;;;;;;8.20;2.72;;;26.30;99.90;;;;;;5053451;28;20189;-74
2022/06/27 07:11:28;;;;;;;3.22;1.83;;;26.60;99.90;;;;;;5053293;28;20185;-74
2022/06/27 07:13:55;;;;;;;1.70;1.33;;;26.70;99.90;;;;;;5033474;28;20197;-73
2022/06/27 07:16:21;;;;;;;2.47;1.55;;;27.00;99.90;;;;;;5033100;28;20233;-74
2022/06/27 07:18:48;;;;;;;3.40;1.67;;;27.10;99.90;;;;;;5033324;28;20186;-74
2022/06/27 07:21:16;;;;;;;3.05;1.48;;;27.10;99.90;;;;;;5033722;28;20673;-74
2022/06/27 07:23:43;;;;;;;2.38;1.35;;;27.00;99.90;;;;;;5016298;28;20190;-75
2022/06/27 07:26:09;;;;;;;7.65;1.98;;;27.20;99.90;;;;;;5016259;28;20680;-75
2022/06/27 07:28:35;;;;;;;3.17;1.67;;;27.40;99.90;;;;;;5033099;28;20202;-74
2022/06/27 07:31:08;;;;;;;4.35;2.05;;;27.30;99.90;;;;;;5015695;28;20228;-75
2022/06/27 07:33:36;;;;;;;3.75;1.17;;;27.40;99.90;;;;;;5033541;28;20660;-75
2022/06/27 07:36:03;;;;;;;2.38;1.48;;;27.30;99.90;;;;;;5033258;28;20295;-75
2022/06/27 07:38:32;;;;;;;2.95;1.65;;;27.30;99.90;;;;;;5015075;28;20203;-75
2022/06/27 07:40:59;;;;;;;2.08;1.30;;;27.40;99.90;;;;;;5033477;28;20572;-76
2022/06/27 07:43:25;;;;;;;2.88;2.00;;;27.40;99.90;;;;;;5033389;28;20217;-75
2022/06/27 07:45:57;;;;;;;2.97;2.05;;;27.70;99.90;;;;;;5033443;28;20240;-75
2022/06/27 07:48:25;;;;;;;1.95;1.67;;;27.90;99.90;;;;;;5034552;28;20190;-74
2022/06/27 07:50:50;;;;;;;3.95;1.80;;;28.10;99.90;;;;;;5038358;28;20663;-74
2022/06/27 07:53:17;;;;;;;2.33;1.65;;;28.40;99.90;;;;;;5034623;28;20227;-74
2022/06/27 07:56:01;;;;;;;2.80;1.83;;;28.60;99.90;;;;;;5035737;28;20223;-75
2022/06/27 07:58:33;;;;;;;2.60;1.10;;;28.90;99.90;;;;;;5035388;28;20192;-74
2022/06/27 08:01:05;;;;;;;2.35;1.08;;;29.30;99.90;;;;;;5035449;28;20697;-75
2022/06/27 08:03:50;;;;;;;2.35;1.67;;;29.30;99.90;;;;;;5035590;28;20201;-75
2022/06/27 08:06:37;;;;;;;3.25;1.80;;;29.50;99.90;;;;;;5055690;28;20533;-75
2022/06/27 08:09:07;;;;;;;2.30;1.65;;;29.80;99.90;;;;;;5036933;28;20200;-73
2022/06/27 08:11:45;;;;;;;1.60;1.35;;;29.90;99.90;;;;;;5052596;28;20239;-72
2022/06/27 08:14:17;;;;;;;2.47;1.25;;;29.50;99.90;;;;;;5052115;28;20188;-72
2022/06/27 08:16:46;;;;;;;1.65;0.90;;;29.00;99.90;;;;;;5052041;28;20232;-72
2022/06/27 08:19:12;;;;;;;1.85;1.50;;;29.20;99.90;;;;;;5051808;28;20216;-72
2022/06/27 08:21:41;;;;;;;1.42;1.02;;;29.20;99.90;;;;;;5051995;28;20196;-72
2022/06/27 08:24:11;;;;;;;2.03;1.65;;;28.80;99.90;;;;;;5051707;28;20663;-72
2022/06/27 08:26:38;;;;;;;2.20;1.48;;;28.80;99.90;;;;;;5051626;28;20196;-72
2022/06/27 08:29:07;;;;;;;1.20;0.82;;;29.20;99.90;;;;;;5051942;28;20193;-70
2022/06/27 08:31:34;;;;;;;1.48;1.02;;;29.30;99.90;;;;;;5051560;28;20185;-71
2022/06/27 08:34:03;;;;;;;1.38;1.13;;;29.40;99.90;;;;;;5034129;28;20671;-71
2022/06/27 08:36:31;;;;;;;0.93;0.85;;;29.20;99.90;;;;;;5033642;28;20226;-70
2022/06/27 08:38:58;;;;;;;1.33;1.10;;;29.40;99.90;;;;;;5033679;28;20204;-71
2022/06/27 08:41:25;;;;;;;1.30;1.20;;;29.30;99.90;;;;;;5033554;28;20189;-71
2022/06/27 08:44:00;;;;;;;2.95;1.30;;;29.40;99.90;;;;;;5033727;28;20698;-71
2022/06/27 08:46:28;;;;;;;1.98;1.23;;;29.80;99.90;;;;;;5033292;28;20199;-72
2022/06/27 08:48:55;;;;;;;2.22;1.27;;;30.40;99.90;;;;;;5031359;28;20201;-71
2022/06/27 08:51:23;;;;;;;1.52;0.93;;;30.00;99.90;;;;;;5031356;28;20201;-71
2022/06/27 08:53:53;;;;;;;1.58;1.10;;;30.30;99.90;;;;;;5031694;28;20189;-71
2022/06/27 08:56:19;;;;;;;1.15;0.80;;;30.50;99.90;;;;;;5031384;28;20198;-71
2022/06/27 08:58:47;;;;;;;2.58;1.20;;;30.60;99.90;;;;;;5013563;28;20194;-71
2022/06/27 09:01:27;;;;;;;1.55;1.17;;;30.60;99.90;;;;;;5031382;28;20568;-71
2022/06/27 09:04:01;;;;;;;2.58;1.30;;;30.40;99.90;;;;;;5031707;28;20186;-71
2022/06/27 09:06:32;;;;;;;1.85;1.27;;;30.20;99.90;;;;;;5040476;28;20231;-72
2022/06/27 09:09:05;;;;;;;3.22;1.77;;;29.80;99.90;;;;;;5013526;28;20665;-71
2022/06/27 09:11:35;;;;;;;2.58;1.42;;;29.50;99.90;;;;;;5031200;28;20676;-71
2022/06/27 09:14:01;;;;;;;1.17;0.82;;;29.40;99.90;;;;;;5031344;28;20268;-71
2022/06/27 09:16:27;;;;;;;1.73;1.20;;;29.40;99.90;;;;;;5031111;28;20243;-71
2022/06/27 09:18:53;;;;;;;1.33;0.90;;;29.50;99.90;;;;;;5013547;28;20190;-71
2022/06/27 09:21:20;;;;;;;1.35;0.90;;;29.60;99.90;;;;;;5013167;28;20674;-70
2022/06/27 09:23:58;;;;;;;1.00;0.93;;;29.80;99.90;;;;;;5031251;28;20236;-70
2022/06/27 09:26:27;;;;;;;1.88;1.25;;;29.90;99.90;;;;;;5031049;28;20193;-70
2022/06/27 09:28:58;;;;;;;2.13;1.02;;;29.60;99.90;;;;;;5013413;28;20651;-70
2022/06/27 09:31:32;;;;;;;1.40;1.25;;;29.90;99.90;;;;;;5030948;28;20208;-70
2022/06/27 09:34:12;;;;;;;2.55;1.27;;;29.90;99.90;;;;;;5031107;28;20190;-71
2022/06/27 09:36:49;;;;;;;0.95;0.93;;;29.80;99.90;;;;;;5015299;28;20189;-69
2022/06/27 09:39:35;;;;;;;1.08;0.73;;;29.50;98.40;;;;;;5035095;28;20281;-70
2022/06/27 09:42:13;;;;;;;1.15;0.70;;;29.40;99.60;;;;;;5034919;28;20685;-70
2022/06/27 09:44:45;;;;;;;2.08;1.10;;;29.60;98.30;;;;;;5034764;28;20754;-71
2022/06/27 09:47:16;;;;;;;0.93;0.70;;;29.80;97.40;;;;;;5034916;28;20205;-70
2022/06/27 09:49:44;;;;;;;1.25;0.95;;;30.40;98.60;;;;;;5016947;28;20217;-70
2022/06/27 09:52:17;;;;;;;1.60;1.15;;;31.20;95.40;;;;;;5017277;28;20197;-71
2022/06/27 09:54:45;;;;;;;1.80;0.77;;;31.70;96.20;;;;;;5034644;28;20205;-71
2022/06/27 09:57:12;;;;;;;1.20;0.77;;;32.20;94.40;;;;;;5034808;28;20686;-71
2022/06/27 09:59:39;;;;;;;6.18;2.33;;;32.50;93.80;;;;;;5016547;28;20288;-71
2022/06/27 10:02:06;;;;;;;0.60;0.60;;;32.20;91.70;;;;;;5034604;28;20561;-71
2022/06/27 10:04:35;;;;;;;1.77;1.10;;;32.00;91.50;;;;;;5050444;28;20209;-71
2022/06/27 10:07:02;;;;;;;0.63;0.63;;;32.10;93.10;;;;;;5038785;28;20288;-71
2022/06/27 10:09:31;;;;;;;1.60;0.73;;;32.10;92.60;;;;;;5016375;28;20237;-71
2022/06/27 10:12:23;;;;;;;1.38;0.98;;;32.10;90.60;;;;;;5034603;28;20734;-71
2022/06/27 10:15:10;;;;;;;0.65;0.63;;;32.20;91.50;;;;;;5025702;28;20684;-71
2022/06/27 10:17:37;;;;;;;1.25;1.02;;;32.10;91.40;;;;;;5041339;28;20422;-71
2022/06/27 10:20:26;;;;;;;1.67;1.17;;;32.00;89.30;;;;;;5055335;28;20223;-70
2022/06/27 10:26:41;;;;;;;1.80;1.10;;;31.90;89.60;;;;;;5039277;28;20217;-69
2022/06/27 10:29:34;;;;;;;1.20;1.00;;;32.00;90.90;;;;;;5053082;28;20193;-71
2022/06/27 10:32:01;;;;;;;1.02;0.93;;;31.30;89.00;;;;;;5054301;28;20263;-70
2022/06/27 10:34:39;;;;;;;2.35;0.82;;;31.00;90.40;;;;;;5053905;28;20200;-71
2022/06/27 10:37:26;;;;;;;1.15;0.98;;;30.50;90.70;;;;;;5052581;28;20197;-71
2022/06/27 10:40:20;;;;;;;1.60;1.13;;;30.30;90.90;;;;;;5053608;28;20613;-71
2022/06/27 10:42:50;;;;;;;1.42;1.30;;;29.60;91.80;;;;;;5053831;28;20196;-71
2022/06/27 10:45:22;;;;;;;1.20;0.73;;;29.50;93.30;;;;;;5053697;28;20189;-71
2022/06/27 10:47:49;;;;;;;1.77;1.58;;;29.20;92.80;;;;;;5053673;28;20315;-70
2022/06/27 10:50:17;;;;;;;1.42;0.90;;;29.00;92.50;;;;;;5053886;28;20217;-71
2022/06/27 10:52:43;;;;;;;1.23;0.90;;;28.90;93.60;;;;;;5052270;28;20675;-71
2022/06/27 10:55:27;;;;;;;0.77;0.77;;;28.80;92.80;;;;;;5053561;28;20235;-71
2022/06/27 10:57:55;;;;;;;1.58;0.85;;;28.90;93.10;;;;;;5053371;28;20211;-71
2022/06/27 11:00:41;;;;;;;8.05;1.20;;;29.20;94.70;;;;;;5065936;28;20663;-71
2022/06/27 11:03:09;;;;;;;1.55;1.08;;;29.30;93.90;;;;;;5073376;28;20198;-71
2022/06/27 11:06:08;;;;;;;1.65;1.40;;;29.40;95.90;;;;;;5072945;28;20303;-71
2022/06/27 11:08:36;;;;;;;1.70;0.90;;;29.40;93.70;;;;;;5039175;28;20231;-71
2022/06/27 11:11:02;;;;;;;1.40;1.23;;;29.30;94.20;;;;;;5073198;28;20219;-71
2022/06/27 11:13:58;;;;;;;2.92;1.05;;;29.30;93.10;;;;;;5073105;28;20188;-71
2022/06/27 11:16:30;;;;;;;0.73;0.70;;;29.70;94.30;;;;;;5068376;28;20224;-71
2022/06/27 11:19:00;;;;;;;1.00;0.90;;;30.10;93.40;;;;;;5052964;28;20729;-71
2022/06/27 11:21:35;;;;;;;1.25;0.90;;;31.10;93.90;;;;;;5053069;28;20589;-71
2022/06/27 11:24:07;;;;;;;1.25;1.15;;;31.50;93.00;;;;;;5053255;28;20193;-71
2022/06/27 11:26:54;;;;;;;1.50;1.13;;;31.70;92.30;;;;;;5052779;28;20595;-71
2022/06/27 11:32:08;;;;;;;1.75;0.80;;;31.10;90.80;;;;;;5052888;28;20192;-71
2022/06/27 11:34:37;;;;;;;1.67;1.10;;;30.90;91.60;;;;;;5052585;28;20185;-71
2022/06/27 11:37:15;;;;;;;1.48;1.27;;;30.50;91.80;;;;;;5033522;28;20663;-71
2022/06/27 11:39:41;;;;;;;0.80;0.70;;;30.50;93.30;;;;;;5034568;28;20188;-71
2022/06/27 11:42:10;;;;;;;2.58;1.13;;;30.60;94.40;;;;;;5034826;28;20258;-71
2022/06/27 11:44:55;;;;;;;1.83;1.10;;;30.60;92.80;;;;;;5052433;28;20236;-71
2022/06/27 11:47:27;;;;;;;0.98;0.82;;;30.60;92.90;;;;;;5052375;28;20197;-71
2022/06/27 11:50:02;;;;;;;1.88;1.17;;;30.40;92.00;;;;;;5052633;28;20212;-71
2022/06/27 11:52:49;;;;;;;2.17;0.95;;;30.30;92.70;;;;;;5034386;28;20196;-71
2022/06/27 11:55:17;;;;;;;1.13;1.02;;;30.20;93.30;;;;;;5034301;28;20573;-71
2022/06/27 11:58:03;;;;;;;1.10;0.60;;;29.90;91.80;;;;;;5052229;28;20199;-72
2022/06/27 12:00:31;;;;;;;0.70;0.70;;;29.80;92.50;;;;;;5034732;28;20251;-72
2022/06/27 12:03:10;;;;;;;0.73;0.65;;;29.50;91.50;;;;;;5052339;28;20188;-72
2022/06/27 12:05:42;;;;;;;1.10;0.90;;;29.90;91.60;;;;;;5029663;28;20255;-73
2022/06/27 12:08:16;;;;;;;1.42;0.85;;;29.80;92.10;;;;;;5014348;28;20202;-74
2022/06/27 12:10:44;;;;;;;4.25;1.33;;;29.70;91.80;;;;;;5014955;28;20263;-74
2022/06/27 12:13:15;;;;;;;0.98;0.80;;;29.60;92.10;;;;;;5032671;28;20661;-73
2022/06/27 12:15:44;;;;;;;2.83;1.52;;;30.10;91.30;;;;;;5032551;28;20197;-74
2022/06/27 12:18:12;;;;;;;1.77;1.23;;;30.40;91.80;;;;;;5032490;28;20231;-73
2022/06/27 12:20:40;;;;;;;1.85;0.80;;;31.00;91.50;;;;;;5014567;28;20204;-72
2022/06/27 12:23:07;;;;;;;0.93;0.70;;;31.70;91.20;;;;;;5032348;28;20200;-72
2022/06/27 12:25:36;;;;;;;2.75;1.20;;;32.30;91.60;;;;;;5031997;28;20553;-71
2022/06/27 12:28:06;;;;;;;1.75;1.02;;;32.80;90.90;;;;;;5031847;28;20562;-71
2022/06/27 12:30:33;;;;;;;1.13;0.70;;;32.90;88.70;;;;;;5031406;28;20240;-71
2022/06/27 12:33:00;;;;;;;1.20;0.98;;;32.30;87.80;;;;;;5043202;28;20601;-70
2022/06/27 12:35:26;;;;;;;1.80;1.48;;;31.80;89.00;;;;;;5050147;28;20204;-70
2022/06/27 12:37:58;;;;;;;0.90;0.85;;;31.40;91.00;;;;;;5033686;28;20485;-70
2022/06/27 12:40:24;;;;;;;13.68;1.60;;;31.30;91.00;;;;;;5051498;28;20193;-71
2022/06/27 12:42:50;;;;;;;4.53;1.42;;;30.90;90.00;;;;;;5051621;28;20212;-71
2022/06/27 12:45:33;;;;;;;1.92;1.17;;;30.60;89.50;;;;;;5051471;28;20201;-71
2022/06/27 12:48:18;;;;;;;1.23;0.95;;;30.60;89.60;;;;;;5034397;28;20558;-70
2022/06/27 12:50:44;;;;;;;1.63;0.90;;;30.60;90.10;;;;;;5051248;28;20208;-71
2022/06/27 12:53:10;;;;;;;1.52;1.25;;;31.20;89.20;;;;;;5033333;28;20418;-71
2022/06/27 12:55:36;;;;;;;2.10;1.15;;;31.30;89.80;;;;;;5033200;28;20220;-69
2022/06/27 12:58:01;;;;;;;2.60;0.93;;;31.20;86.40;;;;;;5033447;28;20204;-69
2022/06/27 13:00:27;;;;;;;1.80;1.05;;;31.30;88.20;;;;;;5051005;28;20193;-69
2022/06/27 13:02:53;;;;;;;2.50;1.00;;;31.20;86.30;;;;;;5051098;28;20679;-70
2022/06/27 13:05:19;;;;;;;2.03;0.90;;;31.20;85.80;;;;;;5049326;28;20204;-70
2022/06/27 13:07:47;;;;;;;1.83;1.02;;;31.30;85.00;;;;;;5031440;28;20224;-71